sensor_id;sensor_type;location;lat;lon;timestamp;P1;durP1;ratioP1;P2;durP2;ratioP2
21352;SDS011;10834;52.268;6.770;2023-04-24T00:02:05;6.13;;;3.80;;
21352;SDS011;10834;52.268;6.770;2023-04-24T00:04:52;4.43;;;4.03;;
21352;SDS011;10834;52.268;6.770;2023-04-24T00:07:38;3.97;;;3.57;;
21352;SDS011;10834;52.268;6.770;2023-04-24T00:10:23;4.80;;;4.30;;
21352;SDS011;10834;52.268;6.770;2023-04-24T00:13:11;5.07;;;4.57;;
21352;SDS011;10834;52.268;6.770;2023-04-24T00:15:58;4.67;;;4.27;;
21352;SDS011;10834;52.268;6.770;2023-04-24T00:18:44;5.37;;;4.87;;
21352;SDS011;10834;52.268;6.770;2023-04-24T00:21:30;5.37;;;4.67;;
21352;SDS011;10834;52.268;6.770;2023-04-24T00:24:17;6.17;;;4.67;;
21352;SDS011;10834;52.268;6.770;2023-04-24T00:27:03;6.80;;;4.77;;
21352;SDS011;10834;52.268;6.770;2023-04-24T00:29:50;5.83;;;4.97;;
21352;SDS011;10834;52.268;6.770;2023-04-24T00:32:35;6.30;;;5.03;;
21352;SDS011;10834;52.268;6.770;2023-04-24T00:35:22;6.67;;;5.97;;
21352;SDS011;10834;52.268;6.770;2023-04-24T00:38:08;6.07;;;5.43;;
21352;SDS011;10834;52.268;6.770;2023-04-24T00:40:54;7.63;;;5.67;;
21352;SDS011;10834;52.268;6.770;2023-04-24T00:43:41;6.47;;;5.77;;
21352;SDS011;10834;52.268;6.770;2023-04-24T00:46:27;7.13;;;5.87;;
21352;SDS011;10834;52.268;6.770;2023-04-24T00:49:13;7.30;;;5.83;;
21352;SDS011;10834;52.268;6.770;2023-04-24T00:51:59;7.40;;;6.07;;
21352;SDS011;10834;52.268;6.770;2023-04-24T00:54:45;7.13;;;6.20;;
21352;SDS011;10834;52.268;6.770;2023-04-24T00:57:31;8.93;;;6.57;;
21352;SDS011;10834;52.268;6.770;2023-04-24T01:00:18;7.97;;;6.90;;
21352;SDS011;10834;52.268;6.770;2023-04-24T01:03:04;9.27;;;6.73;;
21352;SDS011;10834;52.268;6.770;2023-04-24T01:05:51;9.97;;;7.37;;
21352;SDS011;10834;52.268;6.770;2023-04-24T01:08:39;11.07;;;8.07;;
21352;SDS011;10834;52.268;6.770;2023-04-24T01:11:27;10.03;;;7.47;;
21352;SDS011;10834;52.268;6.770;2023-04-24T01:14:14;9.33;;;8.30;;
21352;SDS011;10834;52.268;6.770;2023-04-24T01:17:00;11.63;;;8.13;;
21352;SDS011;10834;52.268;6.770;2023-04-24T01:19:46;13.00;;;9.00;;
21352;SDS011;10834;52.268;6.770;2023-04-24T01:22:33;12.67;;;9.90;;
21352;SDS011;10834;52.268;6.770;2023-04-24T01:25:20;11.67;;;9.37;;
21352;SDS011;10834;52.268;6.770;2023-04-24T01:28:05;12.00;;;9.00;;
21352;SDS011;10834;52.268;6.770;2023-04-24T01:30:52;11.87;;;9.20;;
21352;SDS011;10834;52.268;6.770;2023-04-24T01:33:38;13.10;;;10.00;;
21352;SDS011;10834;52.268;6.770;2023-04-24T01:36:26;14.07;;;9.83;;
21352;SDS011;10834;52.268;6.770;2023-04-24T01:39:14;13.20;;;10.07;;
21352;SDS011;10834;52.268;6.770;2023-04-24T01:42:01;13.80;;;9.77;;
21352;SDS011;10834;52.268;6.770;2023-04-24T01:44:48;11.23;;;9.20;;
21352;SDS011;10834;52.268;6.770;2023-04-24T01:47:34;10.67;;;9.00;;
21352;SDS011;10834;52.268;6.770;2023-04-24T01:50:20;11.83;;;8.80;;
21352;SDS011;10834;52.268;6.770;2023-04-24T01:53:06;11.23;;;8.97;;
21352;SDS011;10834;52.268;6.770;2023-04-24T01:55:52;12.67;;;8.83;;
21352;SDS011;10834;52.268;6.770;2023-04-24T01:58:39;11.47;;;8.67;;
21352;SDS011;10834;52.268;6.770;2023-04-24T02:01:25;10.90;;;8.47;;
21352;SDS011;10834;52.268;6.770;2023-04-24T02:04:11;10.27;;;8.43;;
21352;SDS011;10834;52.268;6.770;2023-04-24T02:06:57;10.43;;;8.70;;
21352;SDS011;10834;52.268;6.770;2023-04-24T02:09:43;9.33;;;7.13;;
21352;SDS011;10834;52.268;6.770;2023-04-24T02:12:29;9.53;;;8.03;;
21352;SDS011;10834;52.268;6.770;2023-04-24T02:15:15;8.90;;;7.43;;
21352;SDS011;10834;52.268;6.770;2023-04-24T02:18:02;10.47;;;8.00;;
21352;SDS011;10834;52.268;6.770;2023-04-24T02:20:48;9.57;;;7.43;;
21352;SDS011;10834;52.268;6.770;2023-04-24T02:23:34;11.67;;;8.13;;
21352;SDS011;10834;52.268;6.770;2023-04-24T02:26:20;11.83;;;9.30;;
21352;SDS011;10834;52.268;6.770;2023-04-24T02:29:06;13.93;;;8.77;;
21352;SDS011;10834;52.268;6.770;2023-04-24T02:31:52;13.43;;;9.63;;
21352;SDS011;10834;52.268;6.770;2023-04-24T02:34:38;11.43;;;9.03;;
21352;SDS011;10834;52.268;6.770;2023-04-24T02:37:24;13.23;;;9.37;;
21352;SDS011;10834;52.268;6.770;2023-04-24T02:40:11;10.70;;;8.73;;
21352;SDS011;10834;52.268;6.770;2023-04-24T02:42:57;14.03;;;10.03;;
21352;SDS011;10834;52.268;6.770;2023-04-24T02:45:43;12.17;;;10.03;;
21352;SDS011;10834;52.268;6.770;2023-04-24T02:48:29;17.73;;;10.73;;
21352;SDS011;10834;52.268;6.770;2023-04-24T02:51:15;16.50;;;11.37;;
21352;SDS011;10834;52.268;6.770;2023-04-24T02:54:01;14.63;;;10.77;;
21352;SDS011;10834;52.268;6.770;2023-04-24T02:56:46;17.17;;;12.23;;
21352;SDS011;10834;52.268;6.770;2023-04-24T02:59:33;18.50;;;11.07;;
21352;SDS011;10834;52.268;6.770;2023-04-24T03:02:19;17.23;;;11.03;;
21352;SDS011;10834;52.268;6.770;2023-04-24T03:05:06;16.53;;;11.80;;
21352;SDS011;10834;52.268;6.770;2023-04-24T03:07:52;17.93;;;12.17;;
21352;SDS011;10834;52.268;6.770;2023-04-24T03:10:39;16.23;;;12.33;;
21352;SDS011;10834;52.268;6.770;2023-04-24T03:13:24;19.27;;;13.17;;
21352;SDS011;10834;52.268;6.770;2023-04-24T03:16:11;16.53;;;12.83;;
21352;SDS011;10834;52.268;6.770;2023-04-24T03:18:57;17.23;;;13.90;;
21352;SDS011;10834;52.268;6.770;2023-04-24T03:21:43;16.73;;;12.93;;
21352;SDS011;10834;52.268;6.770;2023-04-24T03:24:29;17.87;;;12.30;;
21352;SDS011;10834;52.268;6.770;2023-04-24T03:27:16;17.60;;;11.90;;
21352;SDS011;10834;52.268;6.770;2023-04-24T03:30:02;18.63;;;11.97;;
21352;SDS011;10834;52.268;6.770;2023-04-24T03:32:48;17.70;;;12.30;;
21352;SDS011;10834;52.268;6.770;2023-04-24T03:35:34;15.73;;;11.47;;
21352;SDS011;10834;52.268;6.770;2023-04-24T03:38:20;19.60;;;12.27;;
21352;SDS011;10834;52.268;6.770;2023-04-24T03:41:06;14.93;;;11.80;;
21352;SDS011;10834;52.268;6.770;2023-04-24T03:43:52;15.93;;;11.73;;
21352;SDS011;10834;52.268;6.770;2023-04-24T03:46:38;14.90;;;10.63;;
21352;SDS011;10834;52.268;6.770;2023-04-24T03:49:24;15.53;;;11.60;;
21352;SDS011;10834;52.268;6.770;2023-04-24T03:52:11;15.43;;;11.30;;
21352;SDS011;10834;52.268;6.770;2023-04-24T03:54:57;19.20;;;11.50;;
21352;SDS011;10834;52.268;6.770;2023-04-24T03:57:43;19.07;;;11.87;;
21352;SDS011;10834;52.268;6.770;2023-04-24T04:00:29;15.67;;;11.13;;
21352;SDS011;10834;52.268;6.770;2023-04-24T04:03:18;18.23;;;12.27;;
21352;SDS011;10834;52.268;6.770;2023-04-24T04:06:04;23.17;;;14.27;;
21352;SDS011;10834;52.268;6.770;2023-04-24T04:08:50;20.87;;;14.10;;
21352;SDS011;10834;52.268;6.770;2023-04-24T04:11:36;18.77;;;13.30;;
21352;SDS011;10834;52.268;6.770;2023-04-24T04:14:22;19.47;;;14.27;;
21352;SDS011;10834;52.268;6.770;2023-04-24T04:17:09;18.37;;;13.37;;
21352;SDS011;10834;52.268;6.770;2023-04-24T04:19:55;20.83;;;13.70;;
21352;SDS011;10834;52.268;6.770;2023-04-24T04:22:41;21.23;;;15.10;;
21352;SDS011;10834;52.268;6.770;2023-04-24T04:25:27;22.03;;;15.20;;
21352;SDS011;10834;52.268;6.770;2023-04-24T04:28:14;20.90;;;14.87;;
21352;SDS011;10834;52.268;6.770;2023-04-24T04:31:00;26.60;;;16.37;;
21352;SDS011;10834;52.268;6.770;2023-04-24T04:33:47;24.33;;;15.50;;
21352;SDS011;10834;52.268;6.770;2023-04-24T04:36:33;23.20;;;15.30;;
21352;SDS011;10834;52.268;6.770;2023-04-24T04:39:21;24.07;;;16.00;;
21352;SDS011;10834;52.268;6.770;2023-04-24T04:42:08;23.63;;;15.93;;
21352;SDS011;10834;52.268;6.770;2023-04-24T04:44:54;22.63;;;17.27;;
21352;SDS011;10834;52.268;6.770;2023-04-24T04:47:41;25.30;;;16.50;;
21352;SDS011;10834;52.268;6.770;2023-04-24T04:50:27;25.23;;;17.17;;
21352;SDS011;10834;52.268;6.770;2023-04-24T04:53:13;26.37;;;18.00;;
21352;SDS011;10834;52.268;6.770;2023-04-24T04:55:59;25.33;;;18.73;;
21352;SDS011;10834;52.268;6.770;2023-04-24T04:58:45;26.67;;;17.73;;
21352;SDS011;10834;52.268;6.770;2023-04-24T05:01:31;28.30;;;18.83;;
21352;SDS011;10834;52.268;6.770;2023-04-24T05:04:18;26.30;;;19.60;;
21352;SDS011;10834;52.268;6.770;2023-04-24T05:07:04;25.20;;;18.23;;
21352;SDS011;10834;52.268;6.770;2023-04-24T05:09:50;30.57;;;17.97;;
21352;SDS011;10834;52.268;6.770;2023-04-24T05:12:37;30.67;;;19.40;;
21352;SDS011;10834;52.268;6.770;2023-04-24T05:15:23;22.43;;;16.20;;
21352;SDS011;10834;52.268;6.770;2023-04-24T05:18:09;25.83;;;17.83;;
21352;SDS011;10834;52.268;6.770;2023-04-24T05:20:55;30.07;;;18.50;;
21352;SDS011;10834;52.268;6.770;2023-04-24T05:23:41;25.53;;;18.07;;
21352;SDS011;10834;52.268;6.770;2023-04-24T05:26:27;24.23;;;16.80;;
21352;SDS011;10834;52.268;6.770;2023-04-24T05:29:13;24.00;;;16.23;;
21352;SDS011;10834;52.268;6.770;2023-04-24T05:32:00;25.07;;;16.83;;
21352;SDS011;10834;52.268;6.770;2023-04-24T05:34:46;28.83;;;18.00;;
21352;SDS011;10834;52.268;6.770;2023-04-24T05:37:32;25.30;;;16.70;;
21352;SDS011;10834;52.268;6.770;2023-04-24T05:40:18;26.33;;;18.40;;
21352;SDS011;10834;52.268;6.770;2023-04-24T05:43:04;22.23;;;16.13;;
21352;SDS011;10834;52.268;6.770;2023-04-24T05:45:50;26.90;;;17.30;;
21352;SDS011;10834;52.268;6.770;2023-04-24T05:48:36;25.67;;;17.83;;
21352;SDS011;10834;52.268;6.770;2023-04-24T05:51:23;20.53;;;16.17;;
21352;SDS011;10834;52.268;6.770;2023-04-24T05:54:09;22.27;;;16.17;;
21352;SDS011;10834;52.268;6.770;2023-04-24T05:56:57;25.13;;;17.27;;
21352;SDS011;10834;52.268;6.770;2023-04-24T05:59:43;22.40;;;15.97;;
21352;SDS011;10834;52.268;6.770;2023-04-24T06:02:29;22.40;;;15.23;;
21352;SDS011;10834;52.268;6.770;2023-04-24T06:05:18;22.80;;;15.27;;
21352;SDS011;10834;52.268;6.770;2023-04-24T06:08:03;26.37;;;16.13;;
21352;SDS011;10834;52.268;6.770;2023-04-24T06:10:50;21.70;;;16.13;;
21352;SDS011;10834;52.268;6.770;2023-04-24T06:13:36;23.57;;;15.60;;
21352;SDS011;10834;52.268;6.770;2023-04-24T06:16:22;22.73;;;15.30;;
21352;SDS011;10834;52.268;6.770;2023-04-24T06:19:07;22.77;;;16.47;;
21352;SDS011;10834;52.268;6.770;2023-04-24T06:21:53;23.07;;;14.50;;
21352;SDS011;10834;52.268;6.770;2023-04-24T06:24:39;21.80;;;15.47;;
21352;SDS011;10834;52.268;6.770;2023-04-24T06:27:26;19.07;;;13.77;;
21352;SDS011;10834;52.268;6.770;2023-04-24T06:30:12;23.60;;;16.00;;
21352;SDS011;10834;52.268;6.770;2023-04-24T06:32:58;20.37;;;15.47;;
21352;SDS011;10834;52.268;6.770;2023-04-24T06:35:45;17.67;;;14.30;;
21352;SDS011;10834;52.268;6.770;2023-04-24T06:38:31;18.33;;;13.27;;
21352;SDS011;10834;52.268;6.770;2023-04-24T06:41:17;18.50;;;14.27;;
21352;SDS011;10834;52.268;6.770;2023-04-24T06:44:03;23.90;;;14.67;;
21352;SDS011;10834;52.268;6.770;2023-04-24T06:46:49;21.53;;;14.37;;
21352;SDS011;10834;52.268;6.770;2023-04-24T06:49:36;20.87;;;14.47;;
21352;SDS011;10834;52.268;6.770;2023-04-24T06:52:22;26.13;;;15.43;;
21352;SDS011;10834;52.268;6.770;2023-04-24T06:55:08;25.60;;;14.90;;
21352;SDS011;10834;52.268;6.770;2023-04-24T06:57:56;20.80;;;13.30;;
21352;SDS011;10834;52.268;6.770;2023-04-24T07:00:42;19.30;;;13.77;;
21352;SDS011;10834;52.268;6.770;2023-04-24T07:03:28;18.60;;;13.30;;
21352;SDS011;10834;52.268;6.770;2023-04-24T07:06:14;16.63;;;13.10;;
21352;SDS011;10834;52.268;6.770;2023-04-24T07:09:01;18.47;;;13.67;;
21352;SDS011;10834;52.268;6.770;2023-04-24T07:11:49;17.03;;;11.97;;
21352;SDS011;10834;52.268;6.770;2023-04-24T07:14:35;14.17;;;12.03;;
21352;SDS011;10834;52.268;6.770;2023-04-24T07:17:25;18.03;;;12.40;;
21352;SDS011;10834;52.268;6.770;2023-04-24T07:20:11;20.27;;;13.30;;
21352;SDS011;10834;52.268;6.770;2023-04-24T07:22:57;16.93;;;11.90;;
21352;SDS011;10834;52.268;6.770;2023-04-24T07:25:43;19.87;;;11.20;;
21352;SDS011;10834;52.268;6.770;2023-04-24T07:28:29;14.43;;;11.03;;
21352;SDS011;10834;52.268;6.770;2023-04-24T07:31:16;13.67;;;10.93;;
21352;SDS011;10834;52.268;6.770;2023-04-24T07:34:02;14.47;;;10.67;;
21352;SDS011;10834;52.268;6.770;2023-04-24T07:36:48;13.50;;;10.63;;
21352;SDS011;10834;52.268;6.770;2023-04-24T07:39:35;12.57;;;10.03;;
21352;SDS011;10834;52.268;6.770;2023-04-24T07:42:20;15.43;;;10.43;;
21352;SDS011;10834;52.268;6.770;2023-04-24T07:45:07;13.20;;;9.13;;
21352;SDS011;10834;52.268;6.770;2023-04-24T07:47:53;13.90;;;8.83;;
21352;SDS011;10834;52.268;6.770;2023-04-24T07:50:39;13.47;;;9.30;;
21352;SDS011;10834;52.268;6.770;2023-04-24T07:53:25;10.33;;;8.60;;
21352;SDS011;10834;52.268;6.770;2023-04-24T07:56:11;11.00;;;8.27;;
21352;SDS011;10834;52.268;6.770;2023-04-24T07:58:57;10.53;;;8.57;;
21352;SDS011;10834;52.268;6.770;2023-04-24T08:01:43;13.63;;;8.10;;
21352;SDS011;10834;52.268;6.770;2023-04-24T08:04:29;8.97;;;7.07;;
21352;SDS011;10834;52.268;6.770;2023-04-24T08:07:15;10.17;;;7.90;;
21352;SDS011;10834;52.268;6.770;2023-04-24T08:10:02;9.27;;;7.40;;
21352;SDS011;10834;52.268;6.770;2023-04-24T08:12:48;10.27;;;7.60;;
21352;SDS011;10834;52.268;6.770;2023-04-24T08:15:35;10.40;;;7.60;;
21352;SDS011;10834;52.268;6.770;2023-04-24T08:18:20;10.47;;;7.40;;
21352;SDS011;10834;52.268;6.770;2023-04-24T08:21:07;9.80;;;7.40;;
21352;SDS011;10834;52.268;6.770;2023-04-24T08:23:53;11.57;;;7.90;;
21352;SDS011;10834;52.268;6.770;2023-04-24T08:26:39;8.93;;;7.00;;
21352;SDS011;10834;52.268;6.770;2023-04-24T08:29:25;8.33;;;7.00;;
21352;SDS011;10834;52.268;6.770;2023-04-24T08:32:12;8.27;;;5.73;;
21352;SDS011;10834;52.268;6.770;2023-04-24T08:34:58;8.00;;;5.50;;
21352;SDS011;10834;52.268;6.770;2023-04-24T08:37:45;6.60;;;5.03;;
21352;SDS011;10834;52.268;6.770;2023-04-24T08:40:31;7.70;;;5.20;;
21352;SDS011;10834;52.268;6.770;2023-04-24T08:43:21;6.43;;;5.40;;
21352;SDS011;10834;52.268;6.770;2023-04-24T08:46:08;6.27;;;4.37;;
21352;SDS011;10834;52.268;6.770;2023-04-24T08:48:56;7.03;;;4.77;;
21352;SDS011;10834;52.268;6.770;2023-04-24T08:51:43;6.07;;;4.83;;
21352;SDS011;10834;52.268;6.770;2023-04-24T08:54:30;7.00;;;4.33;;
21352;SDS011;10834;52.268;6.770;2023-04-24T08:57:17;7.00;;;3.77;;
21352;SDS011;10834;52.268;6.770;2023-04-24T09:00:04;5.20;;;3.70;;
21352;SDS011;10834;52.268;6.770;2023-04-24T09:02:52;4.33;;;2.93;;
21352;SDS011;10834;52.268;6.770;2023-04-24T09:05:38;3.23;;;2.93;;
21352;SDS011;10834;52.268;6.770;2023-04-24T09:08:31;4.83;;;3.00;;
21352;SDS011;10834;52.268;6.770;2023-04-24T09:11:18;2.60;;;2.33;;
21352;SDS011;10834;52.268;6.770;2023-04-24T09:14:04;4.73;;;3.33;;
21352;SDS011;10834;52.268;6.770;2023-04-24T09:16:51;2.33;;;1.93;;
21352;SDS011;10834;52.268;6.770;2023-04-24T09:19:38;2.27;;;2.07;;
21352;SDS011;10834;52.268;6.770;2023-04-24T09:22:24;3.00;;;2.50;;
21352;SDS011;10834;52.268;6.770;2023-04-24T09:25:10;7.17;;;2.87;;
21352;SDS011;10834;52.268;6.770;2023-04-24T09:27:59;4.93;;;3.13;;
21352;SDS011;10834;52.268;6.770;2023-04-24T09:30:47;5.33;;;3.60;;
21352;SDS011;10834;52.268;6.770;2023-04-24T09:34:02;5.30;;;3.97;;
21352;SDS011;10834;52.268;6.770;2023-04-24T09:36:53;10.30;;;5.20;;
21352;SDS011;10834;52.268;6.770;2023-04-24T09:39:39;10.30;;;6.20;;
21352;SDS011;10834;52.268;6.770;2023-04-24T09:42:25;9.87;;;7.13;;
21352;SDS011;10834;52.268;6.770;2023-04-24T09:45:15;8.73;;;6.97;;
21352;SDS011;10834;52.268;6.770;2023-04-24T09:48:01;11.17;;;8.17;;
21352;SDS011;10834;52.268;6.770;2023-04-24T09:50:48;12.33;;;7.80;;
21352;SDS011;10834;52.268;6.770;2023-04-24T09:53:37;10.93;;;7.87;;
21352;SDS011;10834;52.268;6.770;2023-04-24T09:56:26;10.83;;;7.40;;
21352;SDS011;10834;52.268;6.770;2023-04-24T09:59:14;8.23;;;6.60;;
21352;SDS011;10834;52.268;6.770;2023-04-24T10:02:02;11.33;;;7.43;;
21352;SDS011;10834;52.268;6.770;2023-04-24T10:04:55;12.37;;;7.83;;
21352;SDS011;10834;52.268;6.770;2023-04-24T10:07:42;9.47;;;7.53;;
21352;SDS011;10834;52.268;6.770;2023-04-24T10:10:29;9.80;;;7.40;;
21352;SDS011;10834;52.268;6.770;2023-04-24T10:13:16;13.17;;;6.93;;
21352;SDS011;10834;52.268;6.770;2023-04-24T10:16:02;11.93;;;7.07;;
21352;SDS011;10834;52.268;6.770;2023-04-24T10:18:49;10.33;;;7.03;;
21352;SDS011;10834;52.268;6.770;2023-04-24T10:21:36;10.43;;;6.63;;
21352;SDS011;10834;52.268;6.770;2023-04-24T10:24:28;9.50;;;6.30;;
21352;SDS011;10834;52.268;6.770;2023-04-24T10:27:15;12.30;;;7.03;;
21352;SDS011;10834;52.268;6.770;2023-04-24T10:30:02;10.90;;;6.73;;
21352;SDS011;10834;52.268;6.770;2023-04-24T10:32:49;13.20;;;6.53;;
21352;SDS011;10834;52.268;6.770;2023-04-24T10:35:36;11.70;;;6.37;;
21352;SDS011;10834;52.268;6.770;2023-04-24T10:38:26;6.70;;;5.43;;
21352;SDS011;10834;52.268;6.770;2023-04-24T10:41:15;9.73;;;6.30;;
21352;SDS011;10834;52.268;6.770;2023-04-24T10:44:09;7.27;;;4.50;;
21352;SDS011;10834;52.268;6.770;2023-04-24T10:46:59;10.47;;;5.43;;
21352;SDS011;10834;52.268;6.770;2023-04-24T10:49:45;6.67;;;4.10;;
21352;SDS011;10834;52.268;6.770;2023-04-24T10:52:47;4.53;;;3.40;;
21352;SDS011;10834;52.268;6.770;2023-04-24T10:55:45;6.90;;;3.20;;
21352;SDS011;10834;52.268;6.770;2023-04-24T10:58:43;4.30;;;3.20;;
21352;SDS011;10834;52.268;6.770;2023-04-24T11:01:34;3.53;;;2.77;;
21352;SDS011;10834;52.268;6.770;2023-04-24T11:04:30;7.83;;;2.70;;
21352;SDS011;10834;52.268;6.770;2023-04-24T11:07:20;6.63;;;3.10;;
21352;SDS011;10834;52.268;6.770;2023-04-24T11:10:06;10.13;;;3.60;;
21352;SDS011;10834;52.268;6.770;2023-04-24T11:12:53;5.23;;;3.00;;
21352;SDS011;10834;52.268;6.770;2023-04-24T11:15:40;4.17;;;2.50;;
21352;SDS011;10834;52.268;6.770;2023-04-24T11:18:36;9.73;;;2.60;;
21352;SDS011;10834;52.268;6.770;2023-04-24T11:21:23;8.43;;;3.20;;
21352;SDS011;10834;52.268;6.770;2023-04-24T11:24:31;4.37;;;2.63;;
21352;SDS011;10834;52.268;6.770;2023-04-24T11:27:18;13.87;;;3.53;;
21352;SDS011;10834;52.268;6.770;2023-04-24T11:30:05;8.57;;;2.63;;
21352;SDS011;10834;52.268;6.770;2023-04-24T11:32:52;7.13;;;2.97;;
21352;SDS011;10834;52.268;6.770;2023-04-24T11:35:41;8.50;;;3.60;;
21352;SDS011;10834;52.268;6.770;2023-04-24T11:38:28;10.87;;;3.63;;
21352;SDS011;10834;52.268;6.770;2023-04-24T11:41:14;13.00;;;3.27;;
21352;SDS011;10834;52.268;6.770;2023-04-24T11:44:00;8.73;;;3.07;;
21352;SDS011;10834;52.268;6.770;2023-04-24T11:46:48;5.67;;;2.40;;
21352;SDS011;10834;52.268;6.770;2023-04-24T11:49:36;4.20;;;2.40;;
21352;SDS011;10834;52.268;6.770;2023-04-24T11:52:22;7.00;;;2.20;;
21352;SDS011;10834;52.268;6.770;2023-04-24T11:55:29;8.23;;;2.20;;
21352;SDS011;10834;52.268;6.770;2023-04-24T11:58:15;8.07;;;2.47;;
21352;SDS011;10834;52.268;6.770;2023-04-24T12:01:07;3.17;;;2.03;;
21352;SDS011;10834;52.268;6.770;2023-04-24T12:03:59;6.57;;;2.37;;
21352;SDS011;10834;52.268;6.770;2023-04-24T12:07:03;6.10;;;1.97;;
21352;SDS011;10834;52.268;6.770;2023-04-24T12:09:57;4.77;;;2.53;;
21352;SDS011;10834;52.268;6.770;2023-04-24T12:12:45;5.87;;;2.33;;
21352;SDS011;10834;52.268;6.770;2023-04-24T12:15:32;7.23;;;2.53;;
21352;SDS011;10834;52.268;6.770;2023-04-24T12:18:17;4.73;;;1.90;;
21352;SDS011;10834;52.268;6.770;2023-04-24T12:21:16;5.03;;;1.83;;
21352;SDS011;10834;52.268;6.770;2023-04-24T12:24:07;3.77;;;1.97;;
21352;SDS011;10834;52.268;6.770;2023-04-24T12:26:53;7.80;;;2.00;;
21352;SDS011;10834;52.268;6.770;2023-04-24T12:29:53;7.50;;;2.20;;
21352;SDS011;10834;52.268;6.770;2023-04-24T12:32:43;8.80;;;2.50;;
21352;SDS011;10834;52.268;6.770;2023-04-24T12:35:31;2.80;;;1.70;;
21352;SDS011;10834;52.268;6.770;2023-04-24T12:38:21;2.80;;;2.00;;
21352;SDS011;10834;52.268;6.770;2023-04-24T12:41:12;9.40;;;2.27;;
21352;SDS011;10834;52.268;6.770;2023-04-24T12:43:59;3.93;;;2.00;;
21352;SDS011;10834;52.268;6.770;2023-04-24T12:46:45;6.93;;;2.60;;
21352;SDS011;10834;52.268;6.770;2023-04-24T12:49:31;7.60;;;2.57;;
21352;SDS011;10834;52.268;6.770;2023-04-24T12:52:23;7.20;;;2.80;;
21352;SDS011;10834;52.268;6.770;2023-04-24T12:55:11;7.03;;;2.40;;
21352;SDS011;10834;52.268;6.770;2023-04-24T12:58:00;8.33;;;4.57;;
21352;SDS011;10834;52.268;6.770;2023-04-24T13:00:47;11.47;;;4.17;;
21352;SDS011;10834;52.268;6.770;2023-04-24T13:03:33;5.70;;;2.40;;
21352;SDS011;10834;52.268;6.770;2023-04-24T13:06:20;5.20;;;2.23;;
21352;SDS011;10834;52.268;6.770;2023-04-24T13:09:06;3.40;;;1.43;;
21352;SDS011;10834;52.268;6.770;2023-04-24T13:11:53;3.30;;;1.57;;
21352;SDS011;10834;52.268;6.770;2023-04-24T13:14:40;1.73;;;1.10;;
21352;SDS011;10834;52.268;6.770;2023-04-24T13:17:26;3.67;;;1.03;;
21352;SDS011;10834;52.268;6.770;2023-04-24T13:20:12;3.43;;;1.10;;
21352;SDS011;10834;52.268;6.770;2023-04-24T13:22:58;5.00;;;1.50;;
21352;SDS011;10834;52.268;6.770;2023-04-24T13:25:45;5.40;;;1.40;;
21352;SDS011;10834;52.268;6.770;2023-04-24T13:28:32;3.50;;;1.50;;
21352;SDS011;10834;52.268;6.770;2023-04-24T13:31:18;3.10;;;1.60;;
21352;SDS011;10834;52.268;6.770;2023-04-24T13:34:04;3.10;;;1.60;;
21352;SDS011;10834;52.268;6.770;2023-04-24T13:36:52;2.63;;;1.50;;
21352;SDS011;10834;52.268;6.770;2023-04-24T13:39:39;2.67;;;1.30;;
21352;SDS011;10834;52.268;6.770;2023-04-24T13:42:27;1.23;;;1.00;;
21352;SDS011;10834;52.268;6.770;2023-04-24T13:45:13;2.30;;;1.13;;
21352;SDS011;10834;52.268;6.770;2023-04-24T13:47:59;1.37;;;1.03;;
21352;SDS011;10834;52.268;6.770;2023-04-24T13:50:47;2.73;;;1.10;;
21352;SDS011;10834;52.268;6.770;2023-04-24T13:53:35;3.90;;;0.87;;
21352;SDS011;10834;52.268;6.770;2023-04-24T13:56:23;4.00;;;1.17;;
21352;SDS011;10834;52.268;6.770;2023-04-24T13:59:11;1.63;;;0.77;;
21352;SDS011;10834;52.268;6.770;2023-04-24T14:01:57;1.63;;;0.60;;
21352;SDS011;10834;52.268;6.770;2023-04-24T14:04:43;2.40;;;0.80;;
21352;SDS011;10834;52.268;6.770;2023-04-24T14:07:30;2.97;;;0.70;;
21352;SDS011;10834;52.268;6.770;2023-04-24T14:10:17;1.77;;;0.63;;
21352;SDS011;10834;52.268;6.770;2023-04-24T14:13:03;3.17;;;0.63;;
21352;SDS011;10834;52.268;6.770;2023-04-24T14:15:49;2.70;;;0.83;;
21352;SDS011;10834;52.268;6.770;2023-04-24T14:18:35;1.70;;;0.90;;
21352;SDS011;10834;52.268;6.770;2023-04-24T14:21:21;2.43;;;0.90;;
21352;SDS011;10834;52.268;6.770;2023-04-24T14:24:07;2.37;;;0.70;;
21352;SDS011;10834;52.268;6.770;2023-04-24T14:26:54;1.10;;;0.80;;
21352;SDS011;10834;52.268;6.770;2023-04-24T14:29:41;3.73;;;1.20;;
21352;SDS011;10834;52.268;6.770;2023-04-24T14:32:27;3.47;;;1.40;;
21352;SDS011;10834;52.268;6.770;2023-04-24T14:35:13;3.60;;;1.13;;
21352;SDS011;10834;52.268;6.770;2023-04-24T14:38:00;3.83;;;1.03;;
21352;SDS011;10834;52.268;6.770;2023-04-24T14:40:46;2.33;;;1.07;;
21352;SDS011;10834;52.268;6.770;2023-04-24T14:43:32;5.80;;;1.30;;
21352;SDS011;10834;52.268;6.770;2023-04-24T14:46:19;3.83;;;0.80;;
21352;SDS011;10834;52.268;6.770;2023-04-24T14:49:05;4.73;;;1.33;;
21352;SDS011;10834;52.268;6.770;2023-04-24T14:51:54;2.23;;;0.80;;
21352;SDS011;10834;52.268;6.770;2023-04-24T14:54:41;2.37;;;0.90;;
21352;SDS011;10834;52.268;6.770;2023-04-24T14:57:27;2.53;;;0.97;;
21352;SDS011;10834;52.268;6.770;2023-04-24T15:00:13;3.70;;;1.10;;
21352;SDS011;10834;52.268;6.770;2023-04-24T15:03:02;2.03;;;0.97;;
21352;SDS011;10834;52.268;6.770;2023-04-24T15:05:49;5.97;;;1.37;;
21352;SDS011;10834;52.268;6.770;2023-04-24T15:08:36;2.77;;;1.03;;
21352;SDS011;10834;52.268;6.770;2023-04-24T15:11:22;5.30;;;1.90;;
21352;SDS011;10834;52.268;6.770;2023-04-24T15:14:08;6.90;;;1.90;;
21352;SDS011;10834;52.268;6.770;2023-04-24T15:16:54;6.93;;;1.83;;
21352;SDS011;10834;52.268;6.770;2023-04-24T15:19:40;5.93;;;2.60;;
21352;SDS011;10834;52.268;6.770;2023-04-24T15:22:26;6.53;;;2.17;;
21352;SDS011;10834;52.268;6.770;2023-04-24T15:25:12;6.07;;;2.17;;
21352;SDS011;10834;52.268;6.770;2023-04-24T15:27:58;9.73;;;2.50;;
21352;SDS011;10834;52.268;6.770;2023-04-24T15:30:45;7.40;;;2.60;;
21352;SDS011;10834;52.268;6.770;2023-04-24T15:33:31;8.30;;;2.23;;
21352;SDS011;10834;52.268;6.770;2023-04-24T15:36:17;11.83;;;3.00;;
21352;SDS011;10834;52.268;6.770;2023-04-24T15:39:03;10.40;;;2.43;;
21352;SDS011;10834;52.268;6.770;2023-04-24T15:41:50;11.43;;;2.50;;
21352;SDS011;10834;52.268;6.770;2023-04-24T15:44:36;8.13;;;2.40;;
21352;SDS011;10834;52.268;6.770;2023-04-24T15:47:22;7.60;;;2.50;;
21352;SDS011;10834;52.268;6.770;2023-04-24T15:50:09;8.57;;;2.37;;
21352;SDS011;10834;52.268;6.770;2023-04-24T15:52:56;10.30;;;2.67;;
21352;SDS011;10834;52.268;6.770;2023-04-24T15:55:42;6.13;;;2.00;;
21352;SDS011;10834;52.268;6.770;2023-04-24T15:58:28;10.40;;;2.47;;
21352;SDS011;10834;52.268;6.770;2023-04-24T16:01:14;6.00;;;2.17;;
21352;SDS011;10834;52.268;6.770;2023-04-24T16:04:00;5.47;;;2.20;;
21352;SDS011;10834;52.268;6.770;2023-04-24T16:06:46;3.50;;;1.93;;
21352;SDS011;10834;52.268;6.770;2023-04-24T16:09:32;7.63;;;2.23;;
21352;SDS011;10834;52.268;6.770;2023-04-24T16:12:18;6.40;;;2.50;;
21352;SDS011;10834;52.268;6.770;2023-04-24T16:15:05;7.37;;;2.50;;
21352;SDS011;10834;52.268;6.770;2023-04-24T16:17:51;8.30;;;2.50;;
21352;SDS011;10834;52.268;6.770;2023-04-24T16:20:37;7.80;;;2.30;;
21352;SDS011;10834;52.268;6.770;2023-04-24T16:23:23;6.53;;;2.77;;
21352;SDS011;10834;52.268;6.770;2023-04-24T16:26:09;6.40;;;2.00;;
21352;SDS011;10834;52.268;6.770;2023-04-24T16:28:56;6.07;;;3.50;;
21352;SDS011;10834;52.268;6.770;2023-04-24T16:31:42;10.23;;;2.47;;
21352;SDS011;10834;52.268;6.770;2023-04-24T16:34:27;6.80;;;2.03;;
21352;SDS011;10834;52.268;6.770;2023-04-24T16:37:13;5.83;;;2.13;;